Time;durP1;ratioP1;P1;durP2;ratioP2;P2;SDS_P1;SDS_P2;PMS_P1;PMS_P2;Temp;Humidity;BMP_temperature;BMP_pressure;BME280_temperature;BME280_humidity;BME280_pressure;Samples;Min_cycle;Max_cycle;Signal;HPM_P1;HPM_P2
2023/05/04 00:01:57;;;;;;;;;;;6.60;99.90;;;;;;5010701;28;19925;-64
2023/05/04 00:04:23;;;;;;;;;;;6.50;99.90;;;;;;5014835;28;19948;-65
2023/05/04 00:06:48;;;;;;;;;;;6.50;99.90;;;;;;5004917;28;19926;-68
2023/05/04 00:09:14;;;;;;;;;;;6.50;99.90;;;;;;5018370;28;19922;-65
2023/05/04 00:11:40;;;;;;;;;;;6.50;99.90;;;;;;5015269;28;19922;-65
2023/05/04 00:14:05;;;;;;;;;;;6.40;99.90;;;;;;5015361;28;20012;-65
2023/05/04 00:16:30;;;;;;;;;;;6.40;99.90;;;;;;5002922;28;19929;-65
2023/05/04 00:18:56;;;;;;;;;;;6.40;99.90;;;;;;5013609;28;20390;-65
2023/05/04 00:21:21;;;;;;;;;;;6.40;99.90;;;;;;5014612;28;19926;-65
2023/05/04 00:23:47;;;;;;;;;;;6.40;99.90;;;;;;5003245;28;19930;-66
2023/05/04 00:26:12;;;;;;;;;;;6.30;99.90;;;;;;5008971;28;19929;-66
2023/05/04 00:28:38;;;;;;;;;;;6.30;99.90;;;;;;5014421;28;20554;-65
2023/05/04 00:31:03;;;;;;;;;;;6.20;99.90;;;;;;5015043;28;19928;-65
2023/05/04 00:33:29;;;;;;;;;;;6.20;99.90;;;;;;5009086;28;19921;-65
2023/05/04 00:35:54;;;;;;;;;;;6.20;99.90;;;;;;5010925;28;19921;-65
2023/05/04 00:38:20;;;;;;;;;;;6.20;99.90;;;;;;5013808;28;20457;-65
2023/05/04 00:40:45;;;;;;;;;;;6.10;99.90;;;;;;5004340;28;19932;-66
2023/05/04 00:43:11;;;;;;;;;;;6.10;99.90;;;;;;5005670;28;19943;-65
2023/05/04 00:45:36;;;;;;;;;;;6.10;99.90;;;;;;5014333;28;19928;-65
2023/05/04 00:48:02;;;;;;;;;;;6.10;99.90;;;;;;5002919;28;19922;-65
2023/05/04 00:50:28;;;;;;;;;;;6.00;99.90;;;;;;5013456;28;20297;-67
2023/05/04 00:52:55;;;;;;;;;;;6.00;99.90;;;;;;5023441;28;19925;-65
2023/05/04 00:55:21;;;;;;;;;;;6.00;99.90;;;;;;5034177;28;19921;-65
2023/05/04 00:57:49;;;;;;;;;;;6.00;99.90;;;;;;5002858;28;19944;-65
2023/05/04 01:00:15;;;;;;;;;;;6.00;99.90;;;;;;5005324;28;19992;-65
2023/05/04 01:02:41;;;;;;;;;;;5.90;99.90;;;;;;5028351;28;20336;-65
2023/05/04 01:05:07;;;;;;;;;;;5.90;99.90;;;;;;5024577;28;19921;-66
2023/05/04 01:07:32;;;;;;;;;;;5.90;99.90;;;;;;5008724;28;20014;-67
2023/05/04 01:10:03;;;;;;;;;;;5.90;99.90;;;;;;5013942;28;20033;-65
2023/05/04 01:12:34;;;;;;;;;;;5.90;99.90;;;;;;5014244;28;20014;-65
2023/05/04 01:15:01;;;;;;;;;;;5.90;99.90;;;;;;5006739;28;19929;-65
2023/05/04 01:17:26;;;;;;;;;;;5.80;99.90;;;;;;5013616;28;20511;-65
2023/05/04 01:19:52;;;;;;;;;;;5.80;99.90;;;;;;5013507;28;20395;-65
2023/05/04 01:22:21;;;;;;;;;;;5.80;99.90;;;;;;5010355;28;20376;-65
2023/05/04 01:24:47;;;;;;;;;;;5.80;99.90;;;;;;4997724;28;19944;-65
2023/05/04 01:27:16;;;;;;;;;;;5.80;99.90;;;;;;5012210;28;20450;-66
2023/05/04 01:29:47;;;;;;;;;;;5.80;99.90;;;;;;5007057;28;19922;-67
2023/05/04 01:32:13;;;;;;;;;;;5.80;99.90;;;;;;5001994;28;20319;-66
2023/05/04 01:34:39;;;;;;;;;;;5.80;99.90;;;;;;5019158;28;19991;-66
2023/05/04 01:37:05;;;;;;;;;;;5.80;99.90;;;;;;5013631;28;20391;-65
2023/05/04 01:39:30;;;;;;;;;;;5.80;99.90;;;;;;5005479;28;19922;-65
2023/05/04 01:41:56;;;;;;;;;;;5.70;99.90;;;;;;5008271;28;19980;-65
2023/05/04 01:44:21;;;;;;;;;;;5.70;99.90;;;;;;5013517;28;19921;-65
2023/05/04 01:46:47;;;;;;;;;;;5.70;99.90;;;;;;4995626;28;20008;-65
2023/05/04 01:49:12;;;;;;;;;;;5.70;99.90;;;;;;5004632;28;19992;-65
2023/05/04 01:51:38;;;;;;;;;;;5.70;99.90;;;;;;5013384;28;20012;-65
2023/05/04 01:54:03;;;;;;;;;;;5.70;99.90;;;;;;5031670;28;20288;-65
2023/05/04 01:56:29;;;;;;;;;;;5.70;99.90;;;;;;5021409;28;20003;-65
2023/05/04 01:58:54;;;;;;;;;;;5.70;99.90;;;;;;5011998;28;19921;-65
2023/05/04 02:01:20;;;;;;;;;;;5.70;99.90;;;;;;5028020;28;20012;-67
2023/05/04 02:03:45;;;;;;;;;;;5.70;99.90;;;;;;5002316;28;19968;-65
2023/05/04 02:06:11;;;;;;;;;;;5.70;99.90;;;;;;5009991;28;19922;-65
2023/05/04 02:08:36;;;;;;;;;;;5.70;99.90;;;;;;5012703;28;20347;-66
2023/05/04 02:11:02;;;;;;;;;;;5.60;99.90;;;;;;5009428;28;19921;-66
2023/05/04 02:13:27;;;;;;;;;;;5.70;99.90;;;;;;5010868;28;19921;-64
2023/05/04 02:15:53;;;;;;;;;;;5.70;99.90;;;;;;5012136;28;19929;-67
2023/05/04 02:18:18;;;;;;;;;;;5.70;99.90;;;;;;5012565;28;19972;-65
2023/05/04 02:20:44;;;;;;;;;;;5.70;99.90;;;;;;5001095;28;19925;-65
2023/05/04 02:23:10;;;;;;;;;;;5.70;99.90;;;;;;5007266;28;19975;-65
2023/05/04 02:25:37;;;;;;;;;;;5.70;99.90;;;;;;5012808;28;20492;-65
2023/05/04 02:28:03;;;;;;;;;;;5.70;99.90;;;;;;5012383;28;20273;-65
2023/05/04 02:30:29;;;;;;;;;;;5.70;99.90;;;;;;5002912;28;20403;-67
2023/05/04 02:32:54;;;;;;;;;;;5.70;99.90;;;;;;5012166;28;19956;-65
2023/05/04 02:35:20;;;;;;;;;;;5.60;99.90;;;;;;5012732;28;20432;-64
2023/05/04 02:37:45;;;;;;;;;;;5.70;99.90;;;;;;5000925;28;20399;-65
2023/05/04 02:40:11;;;;;;;;;;;5.70;99.90;;;;;;5004019;28;19925;-65
2023/05/04 02:42:36;;;;;;;;;;;5.70;99.90;;;;;;5012498;28;20384;-65
2023/05/04 02:45:02;;;;;;;;;;;5.70;99.90;;;;;;5009463;28;20376;-67
2023/05/04 02:47:28;;;;;;;;;;;5.70;99.90;;;;;;5009615;28;19952;-65
2023/05/04 02:49:53;;;;;;;;;;;5.70;99.90;;;;;;5011219;28;19926;-66
2023/05/04 02:52:19;;;;;;;;;;;5.70;99.90;;;;;;5016516;28;19921;-65
2023/05/04 02:54:44;;;;;;;;;;;5.70;99.90;;;;;;4997386;28;19921;-66
2023/05/04 02:57:10;;;;;;;;;;;5.70;99.90;;;;;;5000571;28;20396;-66
2023/05/04 02:59:35;;;;;;;;;;;5.60;99.90;;;;;;5011668;28;20008;-66
2023/05/04 03:02:01;;;;;;;;;;;5.70;99.90;;;;;;5011547;28;19934;-65
2023/05/04 03:04:26;;;;;;;;;;;5.70;99.90;;;;;;5007946;28;20299;-65
2023/05/04 03:06:52;;;;;;;;;;;5.70;99.90;;;;;;4997350;28;20020;-66
2023/05/04 03:09:17;;;;;;;;;;;5.80;99.90;;;;;;5008389;28;20445;-65
2023/05/04 03:11:43;;;;;;;;;;;5.80;99.90;;;;;;5004727;28;20009;-65
2023/05/04 03:14:08;;;;;;;;;;;5.80;99.90;;;;;;5010033;28;19944;-66
2023/05/04 03:16:34;;;;;;;;;;;5.80;99.90;;;;;;5011363;28;19995;-65
2023/05/04 03:18:59;;;;;;;;;;;5.80;99.90;;;;;;5008375;28;19925;-65
2023/05/04 03:21:25;;;;;;;;;;;5.80;99.90;;;;;;5009015;28;20027;-65
2023/05/04 03:23:50;;;;;;;;;;;5.80;99.90;;;;;;5014036;28;19921;-68
2023/05/04 03:26:16;;;;;;;;;;;5.80;99.90;;;;;;5010714;28;19929;-65
2023/05/04 03:28:41;;;;;;;;;;;5.80;99.90;;;;;;5001065;28;19929;-66
2023/05/04 03:31:07;;;;;;;;;;;5.80;99.90;;;;;;5009814;28;20003;-66
2023/05/04 03:33:32;;;;;;;;;;;5.80;99.90;;;;;;5031112;28;20020;-65
2023/05/04 03:35:58;;;;;;;;;;;5.80;99.90;;;;;;5010400;28;19925;-65
2023/05/04 03:38:23;;;;;;;;;;;5.90;99.90;;;;;;5015039;28;19929;-65
2023/05/04 03:40:49;;;;;;;;;;;5.90;99.90;;;;;;5015091;28;20491;-65
2023/05/04 03:43:14;;;;;;;;;;;5.90;99.90;;;;;;5008811;28;19921;-65
2023/05/04 03:45:40;;;;;;;;;;;5.90;99.90;;;;;;5006201;28;19921;-65
2023/05/04 03:48:05;;;;;;;;;;;5.90;99.90;;;;;;5014303;28;19922;-66
2023/05/04 03:50:30;;;;;;;;;;;6.00;99.90;;;;;;5015271;28;19921;-65
2023/05/04 03:52:56;;;;;;;;;;;6.00;99.90;;;;;;5008233;28;19974;-65
2023/05/04 03:55:21;;;;;;;;;;;6.00;99.90;;;;;;5019967;28;19921;-66
2023/05/04 03:57:47;;;;;;;;;;;6.00;99.90;;;;;;5015183;28;19925;-65
2023/05/04 04:00:13;;;;;;;;;;;6.00;99.90;;;;;;5002959;28;19929;-65
2023/05/04 04:02:38;;;;;;;;;;;6.00;99.90;;;;;;5005886;28;19929;-65
2023/05/04 04:05:05;;;;;;;;;;;6.00;99.90;;;;;;5012580;28;19963;-65
2023/05/04 04:07:32;;;;;;;;;;;6.00;99.90;;;;;;5015055;28;19928;-66
2023/05/04 04:09:57;;;;;;;;;;;6.10;99.90;;;;;;5007450;28;19922;-65
2023/05/04 04:12:23;;;;;;;;;;;6.10;99.90;;;;;;5004508;28;19932;-65
2023/05/04 04:14:50;;;;;;;;;;;6.10;99.90;;;;;;5005603;28;19921;-67
2023/05/04 04:17:16;;;;;;;;;;;6.10;99.90;;;;;;5007162;28;19929;-64
2023/05/04 04:19:41;;;;;;;;;;;6.10;99.90;;;;;;5008255;28;20472;-67
2023/05/04 04:22:07;;;;;;;;;;;6.10;99.90;;;;;;4993775;28;19976;-67
2023/05/04 04:24:32;;;;;;;;;;;6.20;99.90;;;;;;4994071;28;19929;-65
2023/05/04 04:26:58;;;;;;;;;;;6.20;99.90;;;;;;4998884;28;19922;-67
2023/05/04 04:29:24;;;;;;;;;;;6.20;99.90;;;;;;5013896;28;20016;-67
2023/05/04 04:31:50;;;;;;;;;;;6.20;99.90;;;;;;5015095;28;20048;-67
2023/05/04 04:34:15;;;;;;;;;;;6.20;99.90;;;;;;4999940;28;19940;-67
2023/05/04 04:36:40;;;;;;;;;;;6.20;99.90;;;;;;5012570;28;19921;-67
2023/05/04 04:39:06;;;;;;;;;;;6.20;99.90;;;;;;5013054;28;20029;-67
2023/05/04 04:41:32;;;;;;;;;;;6.20;99.90;;;;;;5006160;28;19952;-67
2023/05/04 04:43:58;;;;;;;;;;;6.20;99.90;;;;;;5008397;28;19921;-67
2023/05/04 04:46:23;;;;;;;;;;;6.20;99.90;;;;;;5014236;28;19922;-67
2023/05/04 04:48:51;;;;;;;;;;;6.30;99.90;;;;;;5009647;28;19949;-67
2023/05/04 04:51:16;;;;;;;;;;;6.30;99.90;;;;;;5005094;28;19987;-67
2023/05/04 04:53:42;;;;;;;;;;;6.30;99.90;;;;;;5014936;28;20324;-67
2023/05/04 04:56:08;;;;;;;;;;;6.30;99.90;;;;;;5014280;28;19921;-66
2023/05/04 04:58:34;;;;;;;;;;;6.30;99.90;;;;;;5004322;28;19929;-67
2023/05/04 05:01:01;;;;;;;;;;;6.30;99.90;;;;;;4992029;28;19968;-66
2023/05/04 05:03:26;;;;;;;;;;;6.40;99.90;;;;;;5002531;28;19922;-67
2023/05/04 05:05:54;;;;;;;;;;;6.30;99.90;;;;;;5000457;28;19928;-67
2023/05/04 05:08:19;;;;;;;;;;;6.40;99.90;;;;;;4998772;28;19929;-67
2023/05/04 05:10:45;;;;;;;;;;;6.40;99.90;;;;;;5001724;28;19922;-67
2023/05/04 05:13:10;;;;;;;;;;;6.40;99.90;;;;;;5005757;28;20306;-66
2023/05/04 05:15:36;;;;;;;;;;;6.40;99.90;;;;;;5004601;28;19922;-68
2023/05/04 05:18:01;;;;;;;;;;;6.40;99.90;;;;;;5002202;28;19968;-66
2023/05/04 05:20:26;;;;;;;;;;;6.50;99.90;;;;;;5003477;28;19998;-68
2023/05/04 05:22:52;;;;;;;;;;;6.50;99.90;;;;;;5001045;28;19922;-66
2023/05/04 05:25:17;;;;;;;;;;;6.60;99.90;;;;;;5003864;28;20601;-68
2023/05/04 05:27:43;;;;;;;;;;;6.60;99.90;;;;;;5004509;28;19932;-67
2023/05/04 05:30:10;;;;;;;;;;;6.60;99.90;;;;;;5005067;28;19921;-67
2023/05/04 05:32:35;;;;;;;;;;;6.70;99.90;;;;;;4999699;28;19921;-67
2023/05/04 05:35:01;;;;;;;;;;;6.70;99.90;;;;;;5004504;28;19921;-66
2023/05/04 05:37:26;;;;;;;;;;;6.80;99.90;;;;;;5004338;28;19921;-67
2023/05/04 05:39:54;;;;;;;;;;;6.80;99.90;;;;;;4997327;28;19925;-66
2023/05/04 05:42:20;;;;;;;;;;;6.80;99.90;;;;;;5005898;28;19925;-67
2023/05/04 05:44:45;;;;;;;;;;;6.90;99.90;;;;;;5003643;28;19929;-64
2023/05/04 05:47:11;;;;;;;;;;;7.00;99.90;;;;;;5003827;28;19925;-65
2023/05/04 05:49:36;;;;;;;;;;;7.00;99.90;;;;;;4998074;28;20423;-65
2023/05/04 05:52:02;;;;;;;;;;;7.10;99.90;;;;;;5004834;28;20391;-66
2023/05/04 05:54:32;;;;;;;;;;;7.20;99.90;;;;;;5004705;28;20013;-66
2023/05/04 05:56:57;;;;;;;;;;;7.30;99.90;;;;;;5001220;28;19925;-65
2023/05/04 05:59:23;;;;;;;;;;;7.30;99.90;;;;;;5004280;28;19921;-67
2023/05/04 06:01:48;;;;;;;;;;;7.40;99.90;;;;;;4993952;28;20021;-66
2023/05/04 06:04:14;;;;;;;;;;;7.50;99.90;;;;;;4999295;28;19929;-65
2023/05/04 06:06:39;;;;;;;;;;;7.60;99.90;;;;;;5002391;28;19999;-64
2023/05/04 06:09:05;;;;;;;;;;;7.60;99.90;;;;;;4998166;28;19944;-65
2023/05/04 06:11:30;;;;;;;;;;;7.60;99.90;;;;;;5001724;28;19930;-65
2023/05/04 06:13:56;;;;;;;;;;;7.70;99.90;;;;;;5002142;28;20040;-67
2023/05/04 06:16:21;;;;;;;;;;;7.80;99.90;;;;;;5007162;28;19921;-65
2023/05/04 06:18:47;;;;;;;;;;;7.90;99.90;;;;;;5002600;28;19925;-65
2023/05/04 06:21:13;;;;;;;;;;;8.00;99.90;;;;;;5005211;28;20388;-67
2023/05/04 06:23:39;;;;;;;;;;;8.00;99.90;;;;;;5002729;28;20012;-67
2023/05/04 06:26:04;;;;;;;;;;;8.10;99.90;;;;;;4998156;28;20024;-66
2023/05/04 06:28:30;;;;;;;;;;;8.10;99.90;;;;;;4999494;28;19925;-67
2023/05/04 06:30:56;;;;;;;;;;;8.20;99.90;;;;;;4999996;28;19921;-67
2023/05/04 06:33:21;;;;;;;;;;;8.20;99.90;;;;;;5007580;28;19961;-67
2023/05/04 06:35:47;;;;;;;;;;;8.40;99.90;;;;;;5012530;28;19921;-67
2023/05/04 06:38:12;;;;;;;;;;;8.50;99.90;;;;;;5007688;28;20450;-67
2023/05/04 06:40:38;;;;;;;;;;;8.60;99.90;;;;;;4999728;28;19926;-67
2023/05/04 06:43:03;;;;;;;;;;;8.70;99.90;;;;;;5011696;28;19926;-67
2023/05/04 06:45:29;;;;;;;;;;;8.80;99.90;;;;;;5007320;28;19933;-66
2023/05/04 06:47:54;;;;;;;;;;;8.90;99.90;;;;;;4986157;28;19929;-68
2023/05/04 06:50:22;;;;;;;;;;;9.10;99.90;;;;;;4994822;28;19944;-67
2023/05/04 06:52:48;;;;;;;;;;;9.20;99.90;;;;;;5006656;28;20367;-67
2023/05/04 06:55:13;;;;;;;;;;;9.30;99.90;;;;;;5010493;28;19925;-66
2023/05/04 06:57:39;;;;;;;;;;;9.40;99.90;;;;;;5007626;28;19943;-67
2023/05/04 07:00:05;;;;;;;;;;;9.40;99.90;;;;;;5004324;28;19926;-67
2023/05/04 07:02:30;;;;;;;;;;;9.50;99.90;;;;;;5011395;28;19956;-67
2023/05/04 07:04:56;;;;;;;;;;;9.70;99.90;;;;;;5000924;28;20399;-64
2023/05/04 07:07:22;;;;;;;;;;;9.80;99.90;;;;;;5011777;28;19968;-67
2023/05/04 07:09:49;;;;;;;;;;;9.90;99.90;;;;;;5011887;28;20016;-65
2023/05/04 07:12:14;;;;;;;;;;;10.00;99.90;;;;;;5008611;28;19925;-66
2023/05/04 07:14:40;;;;;;;;;;;10.10;99.90;;;;;;5001087;28;19929;-66
2023/05/04 07:17:05;;;;;;;;;;;10.20;99.90;;;;;;5009770;28;19928;-67
2023/05/04 07:19:31;;;;;;;;;;;10.30;99.90;;;;;;5009269;28;20004;-64
2023/05/04 07:21:56;;;;;;;;;;;10.40;99.90;;;;;;5000417;28;19926;-67
2023/05/04 07:24:22;;;;;;;;;;;10.40;99.90;;;;;;5011371;28;19921;-67
2023/05/04 07:26:47;;;;;;;;;;;10.50;99.90;;;;;;5012287;28;20451;-67
2023/05/04 07:29:13;;;;;;;;;;;10.50;99.90;;;;;;5001616;28;19976;-67
2023/05/04 07:31:38;;;;;;;;;;;10.60;99.90;;;;;;5003945;28;19968;-66
2023/05/04 07:34:04;;;;;;;;;;;10.70;99.90;;;;;;5014205;28;20471;-65
2023/05/04 07:36:29;;;;;;;;;;;10.60;99.90;;;;;;5002504;28;19937;-66
2023/05/04 07:38:55;;;;;;;;;;;10.60;99.90;;;;;;4998656;28;19921;-65
2023/05/04 07:41:21;;;;;;;;;;;10.60;99.90;;;;;;5011034;28;19925;-65
2023/05/04 07:43:46;;;;;;;;;;;10.70;99.90;;;;;;5018482;28;19928;-65
2023/05/04 07:46:12;;;;;;;;;;;10.80;99.90;;;;;;5031802;28;19976;-66
2023/05/04 07:48:37;;;;;;;;;;;10.80;99.90;;;;;;4998450;28;19928;-66
2023/05/04 07:51:03;;;;;;;;;;;11.00;99.90;;;;;;5009073;28;19922;-67
2023/05/04 07:53:28;;;;;;;;;;;11.10;99.90;;;;;;5004418;28;20471;-66
2023/05/04 07:55:56;;;;;;;;;;;11.20;99.90;;;;;;5005328;28;20329;-65
2023/05/04 07:58:22;;;;;;;;;;;11.30;99.90;;;;;;5004743;28;19971;-66
2023/05/04 08:00:48;;;;;;;;;;;11.40;99.90;;;;;;4998391;28;20360;-65
2023/05/04 08:03:13;;;;;;;;;;;11.40;99.90;;;;;;4999062;28;19953;-65
2023/05/04 08:05:38;;;;;;;;;;;11.40;99.90;;;;;;5004513;28;19922;-65
2023/05/04 08:08:04;;;;;;;;;;;11.40;99.90;;;;;;5000034;28;19925;-66
2023/05/04 08:10:30;;;;;;;;;;;11.40;99.90;;;;;;4995107;28;19948;-68
2023/05/04 08:12:55;;;;;;;;;;;11.50;99.90;;;;;;4998991;28;19921;-67
2023/05/04 08:15:21;;;;;;;;;;;11.60;99.90;;;;;;5006519;28;19922;-67
2023/05/04 08:17:46;;;;;;;;;;;11.70;99.90;;;;;;5005046;28;19960;-68
2023/05/04 08:20:12;;;;;;;;;;;11.80;99.90;;;;;;5002370;28;19922;-65
2023/05/04 08:22:38;;;;;;;;;;;11.80;99.90;;;;;;5003019;28;19929;-67
2023/05/04 08:25:04;;;;;;;;;;;12.00;99.90;;;;;;5002745;28;20547;-67
2023/05/04 08:27:29;;;;;;;;;;;12.10;99.90;;;;;;5005398;28;19925;-65
2023/05/04 08:29:57;;;;;;;;;;;12.20;99.90;;;;;;5007923;28;19922;-66
2023/05/04 08:32:23;;;;;;;;;;;12.30;99.90;;;;;;5005244;28;19968;-65
2023/05/04 08:34:49;;;;;;;;;;;12.50;99.90;;;;;;5003419;28;19976;-66
2023/05/04 08:37:15;;;;;;;;;;;12.70;99.90;;;;;;4999698;28;20557;-66
2023/05/04 08:39:40;;;;;;;;;;;12.80;99.90;;;;;;4997970;28;20391;-66
2023/05/04 08:42:06;;;;;;;;;;;12.90;99.90;;;;;;4999867;28;20041;-65
2023/05/04 08:44:32;;;;;;;;;;;13.00;99.90;;;;;;4997601;28;19922;-65
2023/05/04 08:47:01;;;;;;;;;;;13.10;99.90;;;;;;5004323;28;19921;-65
2023/05/04 08:49:26;;;;;;;;;;;13.20;99.90;;;;;;5009413;28;19921;-64
2023/05/04 08:51:52;;;;;;;;;;;13.30;99.90;;;;;;5011260;28;19928;-65
2023/05/04 08:54:17;;;;;;;;;;;13.30;99.90;;;;;;5013658;28;19921;-65
2023/05/04 08:56:43;;;;;;;;;;;13.50;99.90;;;;;;5007287;28;19921;-66
2023/05/04 08:59:11;;;;;;;;;;;13.50;99.90;;;;;;5004019;28;19984;-64
2023/05/04 09:01:37;;;;;;;;;;;13.60;99.90;;;;;;5002908;28;20033;-65
2023/05/04 09:04:03;;;;;;;;;;;13.70;99.90;;;;;;5011833;28;19949;-64
2023/05/04 09:06:30;;;;;;;;;;;13.80;99.90;;;;;;5013913;28;19957;-65
2023/05/04 09:08:55;;;;;;;;;;;14.00;99.90;;;;;;5009488;28;20510;-65
2023/05/04 09:11:21;;;;;;;;;;;14.10;99.90;;;;;;5005839;28;19922;-64
2023/05/04 09:13:47;;;;;;;;;;;14.20;99.90;;;;;;5015882;28;19922;-64
2023/05/04 09:16:13;;;;;;;;;;;14.30;99.90;;;;;;5009179;28;19933;-65
2023/05/04 09:18:40;;;;;;;;;;;14.30;99.90;;;;;;5000779;28;19949;-64
2023/05/04 09:21:06;;;;;;;;;;;14.30;99.90;;;;;;5005424;28;19932;-64
2023/05/04 09:23:32;;;;;;;;;;;14.30;99.90;;;;;;5004558;28;19921;-64
2023/05/04 09:25:57;;;;;;;;;;;14.40;99.90;;;;;;5001795;28;19929;-64
2023/05/04 09:28:37;;;;;;;;;;;14.60;99.90;;;;;;5005969;28;20300;-65
2023/05/04 09:31:02;;;;;;;;;;;14.70;99.90;;;;;;5005704;28;20066;-65
2023/05/04 09:33:28;;;;;;;;;;;14.80;99.90;;;;;;5001089;28;20407;-65
2023/05/04 09:35:54;;;;;;;;;;;15.00;99.90;;;;;;5004354;28;20720;-65
2023/05/04 09:38:24;;;;;;;;;;;15.10;99.50;;;;;;4998578;28;19925;-65
2023/05/04 09:40:50;;;;;;;;;;;15.30;99.40;;;;;;5004467;28;19929;-65
2023/05/04 09:43:16;;;;;;;;;;;15.50;99.90;;;;;;5000981;28;19929;-65
2023/05/04 09:45:42;;;;;;;;;;;15.60;99.40;;;;;;4991994;28;20388;-65
2023/05/04 09:48:17;;;;;;;;;;;15.60;99.00;;;;;;4991589;28;19921;-65
2023/05/04 09:50:46;;;;;;;;;;;15.70;99.00;;;;;;4999136;28;19922;-65
2023/05/04 09:53:12;;;;;;;;;;;15.70;98.90;;;;;;5009337;28;20379;-65
2023/05/04 09:55:41;;;;;;;;;;;15.90;98.20;;;;;;5012177;28;19988;-65
2023/05/04 09:58:07;;;;;;;;;;;15.90;98.80;;;;;;5010750;28;20358;-64
2023/05/04 10:00:34;;;;;;;;;;;16.00;98.60;;;;;;5006134;28;19940;-65
2023/05/04 10:03:02;;;;;;;;;;;16.00;96.20;;;;;;5010053;28;19921;-65
2023/05/04 10:05:28;;;;;;;;;;;16.10;98.90;;;;;;5013138;28;19928;-67
2023/05/04 10:07:54;;;;;;;;;;;16.20;97.30;;;;;;5009083;28;19936;-66
2023/05/04 10:10:19;;;;;;;;;;;16.40;98.00;;;;;;5008646;28;19928;-65
2023/05/04 10:12:45;;;;;;;;;;;16.50;97.60;;;;;;5011646;28;19975;-64
2023/05/04 10:15:10;;;;;;;;;;;16.60;97.40;;;;;;5013033;28;19921;-65
2023/05/04 10:17:41;;;;;;;;;;;16.90;97.70;;;;;;5002603;28;19922;-65
2023/05/04 10:20:22;;;;;;;;;;;17.00;96.30;;;;;;5019573;28;20380;-65
2023/05/04 10:22:55;;;;;;;;;;;17.10;96.80;;;;;;5012912;28;19948;-65
2023/05/04 10:25:39;;;;;;;;;;;17.20;97.50;;;;;;5004553;28;19921;-65
2023/05/04 10:28:08;;;;;;;;;;;17.50;97.40;;;;;;5018193;28;20387;-65
2023/05/04 10:30:34;;;;;;;;;;;17.40;94.30;;;;;;5013030;28;19922;-65
2023/05/04 10:33:01;;;;;;;;;;;17.40;96.40;;;;;;4995389;28;19922;-65
2023/05/04 10:35:27;;;;;;;;;;;17.50;96.00;;;;;;5017694;28;19928;-65
2023/05/04 10:37:53;;;;;;;;;;;17.60;95.20;;;;;;5032051;28;19921;-65
2023/05/04 10:40:31;;;;;;;;;;;17.60;96.10;;;;;;5009623;28;19929;-65
2023/05/04 10:42:56;;;;;;;;;;;17.70;94.90;;;;;;5014200;28;20011;-65
2023/05/04 10:45:32;;;;;;;;;;;17.70;96.30;;;;;;5012393;28;20056;-65
2023/05/04 10:47:58;;;;;;;;;;;17.60;94.50;;;;;;5012410;28;19960;-65
2023/05/04 10:50:23;;;;;;;;;;;17.70;95.20;;;;;;5008217;28;19984;-65
2023/05/04 10:52:50;;;;;;;;;;;17.80;95.40;;;;;;4999485;28;19932;-65
2023/05/04 10:55:16;;;;;;;;;;;17.90;94.50;;;;;;5010871;28;19921;-65
2023/05/04 10:57:48;;;;;;;;;;;18.10;93.90;;;;;;5004506;28;19926;-64
2023/05/04 11:00:14;;;;;;;;;;;18.00;93.40;;;;;;5020838;28;19921;-65
2023/05/04 11:02:39;;;;;;;;;;;18.00;93.50;;;;;;5017266;28;19921;-65
2023/05/04 11:05:05;;;;;;;;;;;18.00;91.90;;;;;;5005244;28;19922;-65
2023/05/04 11:07:32;;;;;;;;;;;18.00;91.70;;;;;;5010310;28;19925;-65
2023/05/04 11:10:00;;;;;;;;;;;18.00;91.50;;;;;;5028865;28;19975;-65
2023/05/04 11:12:26;;;;;;;;;;;18.30;91.90;;;;;;5031882;28;20330;-65
2023/05/04 11:15:01;;;;;;;;;;;18.20;91.00;;;;;;4996767;28;19922;-65
2023/05/04 11:17:27;;;;;;;;;;;18.40;91.20;;;;;;5004226;28;19922;-65
2023/05/04 11:19:52;;;;;;;;;;;18.60;90.40;;;;;;5011667;28;20284;-65
2023/05/04 11:22:18;;;;;;;;;;;18.60;91.20;;;;;;5006209;28;19926;-65
2023/05/04 11:24:44;;;;;;;;;;;18.80;91.90;;;;;;5011948;28;19921;-65
2023/05/04 11:27:29;;;;;;;;;;;19.10;90.20;;;;;;5021679;28;19967;-65
2023/05/04 11:29:55;;;;;;;;;;;19.30;88.90;;;;;;5008508;28;19921;-66
2023/05/04 11:32:20;;;;;;;;;;;19.40;90.50;;;;;;5004417;28;20343;-65
2023/05/04 11:34:46;;;;;;;;;;;19.70;90.90;;;;;;5026318;28;19921;-66
2023/05/04 11:37:12;;;;;;;;;;;19.90;89.70;;;;;;5030569;28;19975;-66
2023/05/04 11:39:37;;;;;;;;;;;20.00;89.00;;;;;;5013861;28;19969;-65
2023/05/04 11:42:09;;;;;;;;;;;20.00;85.30;;;;;;5002264;28;19926;-65
2023/05/04 11:44:36;;;;;;;;;;;20.00;87.60;;;;;;5007971;28;20014;-65
2023/05/04 11:47:01;;;;;;;;;;;19.80;85.10;;;;;;5019857;28;19965;-65
2023/05/04 11:49:29;;;;;;;;;;;19.90;84.70;;;;;;5010103;28;19968;-65
2023/05/04 11:52:05;;;;;;;;;;;19.70;80.80;;;;;;5023392;28;20403;-66
2023/05/04 11:54:31;;;;;;;;;;;19.40;79.00;;;;;;5035258;28;20388;-65
2023/05/04 11:56:57;;;;;;;;;;;19.60;84.40;;;;;;5010735;28;19922;-66
2023/05/04 11:59:23;;;;;;;;;;;19.60;83.20;;;;;;5013731;28;19921;-66
2023/05/04 12:01:48;;;;;;;;;;;19.80;83.70;;;;;;5020045;28;19931;-65
2023/05/04 12:04:14;;;;;;;;;;;19.80;81.80;;;;;;5002600;28;19926;-65
2023/05/04 12:06:40;;;;;;;;;;;20.00;85.10;;;;;;5008029;28;20395;-67
2023/05/04 12:09:05;;;;;;;;;;;20.20;85.60;;;;;;5011056;28;19966;-67
2023/05/04 12:11:31;;;;;;;;;;;20.00;79.20;;;;;;5008301;28;19921;-67
2023/05/04 12:14:04;;;;;;;;;;;20.10;84.30;;;;;;5014849;28;20004;-67
2023/05/04 12:16:29;;;;;;;;;;;20.40;86.90;;;;;;5012813;28;19922;-67
2023/05/04 12:19:09;;;;;;;;;;;20.30;83.00;;;;;;5012911;28;19933;-68
2023/05/04 12:21:35;;;;;;;;;;;20.30;83.50;;;;;;5002122;28;19936;-67
2023/05/04 12:24:02;;;;;;;;;;;20.20;83.70;;;;;;5007059;28;20055;-67
2023/05/04 12:26:28;;;;;;;;;;;20.20;85.30;;;;;;5003717;28;19929;-67
2023/05/04 12:28:55;;;;;;;;;;;20.30;83.80;;;;;;5002669;28;19921;-67
2023/05/04 12:31:20;;;;;;;;;;;20.30;83.20;;;;;;5004785;28;20012;-67
2023/05/04 12:33:46;;;;;;;;;;;20.40;79.50;;;;;;5008274;28;20008;-67
2023/05/04 12:36:11;;;;;;;;;;;20.40;83.60;;;;;;5004337;28;20328;-67
2023/05/04 12:38:37;;;;;;;;;;;20.50;81.00;;;;;;5001396;28;20339;-67
2023/05/04 12:41:06;;;;;;;;;;;20.70;82.40;;;;;;5012162;28;20442;-67
2023/05/04 12:43:32;;;;;;;;;;;20.40;80.50;;;;;;5005788;28;19921;-67
2023/05/04 12:45:57;;;;;;;;;;;20.50;82.20;;;;;;5000629;28;19929;-67
2023/05/04 12:48:25;;;;;;;;;;;20.40;79.40;;;;;;5004081;28;19933;-67
2023/05/04 12:50:50;;;;;;;;;;;20.40;78.80;;;;;;5001120;28;19929;-67
2023/05/04 12:53:16;;;;;;;;;;;20.30;79.90;;;;;;4995878;28;19976;-67
2023/05/04 12:55:42;;;;;;;;;;;20.50;82.50;;;;;;5003561;28;19987;-67
2023/05/04 12:58:07;;;;;;;;;;;20.80;80.30;;;;;;5020910;28;19924;-67
2023/05/04 13:00:37;;;;;;;;;;;21.10;82.50;;;;;;4997790;28;19955;-68
2023/05/04 13:03:03;;;;;;;;;;;21.40;80.70;;;;;;5003191;28;19933;-67
2023/05/04 13:05:28;;;;;;;;;;;21.60;79.70;;;;;;5019339;28;19922;-67
2023/05/04 13:07:54;;;;;;;;;;;21.60;80.40;;;;;;5012672;28;20319;-67
2023/05/04 13:10:20;;;;;;;;;;;21.70;76.40;;;;;;5001225;28;20654;-68
2023/05/04 13:12:46;;;;;;;;;;;22.10;80.50;;;;;;5015695;28;19972;-67
2023/05/04 13:15:11;;;;;;;;;;;22.50;81.20;;;;;;5021863;28;20402;-66
2023/05/04 13:17:37;;;;;;;;;;;22.50;75.60;;;;;;5028891;28;20001;-67
2023/05/04 13:20:05;;;;;;;;;;;22.60;74.60;;;;;;5010333;28;20021;-67
2023/05/04 13:22:31;;;;;;;;;;;22.80;76.40;;;;;;5007228;28;19938;-67
2023/05/04 13:24:56;;;;;;;;;;;22.40;74.50;;;;;;5021431;28;19947;-67
2023/05/04 13:27:22;;;;;;;;;;;22.40;76.20;;;;;;5019366;28;20320;-67
2023/05/04 13:29:47;;;;;;;;;;;22.60;78.80;;;;;;5008253;28;20305;-67
2023/05/04 13:32:13;;;;;;;;;;;22.70;77.80;;;;;;5013473;28;19921;-67
2023/05/04 13:34:38;;;;;;;;;;;22.70;74.60;;;;;;5007657;28;19933;-67
2023/05/04 13:37:04;;;;;;;;;;;22.60;75.50;;;;;;4999324;28;19922;-67
2023/05/04 13:39:29;;;;;;;;;;;22.40;73.90;;;;;;5012671;28;20432;-67
2023/05/04 13:41:55;;;;;;;;;;;22.30;74.60;;;;;;5013823;28;19929;-67
2023/05/04 13:44:20;;;;;;;;;;;22.50;74.10;;;;;;5002043;28;19922;-67
2023/05/04 13:46:46;;;;;;;;;;;22.50;75.80;;;;;;5001277;28;20284;-67
2023/05/04 13:49:11;;;;;;;;;;;22.20;73.00;;;;;;5023091;28;19921;-67
2023/05/04 13:51:37;;;;;;;;;;;22.00;73.70;;;;;;5033083;28;19982;-67
2023/05/04 13:54:02;;;;;;;;;;;22.00;73.20;;;;;;5009783;28;19921;-67
2023/05/04 13:56:28;;;;;;;;;;;21.80;73.90;;;;;;5008342;28;19999;-67
2023/05/04 13:58:54;;;;;;;;;;;22.00;73.70;;;;;;5009598;28;20422;-66
2023/05/04 14:01:21;;;;;;;;;;;22.00;72.00;;;;;;5001675;28;20451;-67
2023/05/04 14:03:48;;;;;;;;;;;22.00;73.20;;;;;;5010684;28;21325;-66
2023/05/04 14:06:13;;;;;;;;;;;22.10;74.50;;;;;;5012989;28;20448;-66
2023/05/04 14:08:39;;;;;;;;;;;22.30;77.70;;;;;;4997165;28;19921;-66
2023/05/04 14:11:04;;;;;;;;;;;22.10;74.40;;;;;;5008747;28;20004;-66
2023/05/04 14:13:30;;;;;;;;;;;22.30;75.80;;;;;;5012831;28;19929;-66
2023/05/04 14:15:57;;;;;;;;;;;22.40;74.40;;;;;;5006862;28;20001;-66
2023/05/04 14:18:22;;;;;;;;;;;22.70;73.90;;;;;;5004461;28;20024;-66